Cotton, Minnesota
Current Conditions -  °F | °C
As of 4:11 PM on Sunday 23 Nov 2014 (Local Time) from KEVM Reporting Station
Haze Haze  
Wind Chill: 31°   Ceiling: 500
Heat Index: 36°   Visibility: 2mi
Dew Point: 36°   Wind: 6mph
Humidity: 100%   Direction: 300°WNW
Pressure: 29.37"   Gusts: NA
Location:  47.17°N, 92.48°W
Report Text: KEVM 232211Z AUTO 30005KT 2SM BR OVC005 02/02 A2937 RMK AO2
Loading
Personal Weather Stations






























Interactive Weather Map New forecast layout! Learn more

10-Day Weather Forecast

Advertisements
Track Severe Weather on mobile